createdAt,value
2023-04-10T00:00:39.270Z,100.00
2023-04-10T00:01:40.886Z,100.00
2023-04-10T00:02:42.766Z,100.00
2023-04-10T00:03:44.437Z,100.00
2023-04-10T00:04:46.092Z,100.00
2023-04-10T00:05:47.541Z,100.00
2023-04-10T00:06:49.122Z,100.00
2023-04-10T00:07:50.825Z,100.00
2023-04-10T00:08:52.310Z,100.00
2023-04-10T00:09:53.779Z,100.00
2023-04-10T00:10:56.022Z,100.00
2023-04-10T00:11:57.636Z,100.00
2023-04-10T00:13:00.770Z,100.00
2023-04-10T00:14:02.178Z,100.00
2023-04-10T00:15:04.520Z,100.00
2023-04-10T00:16:06.553Z,100.00
2023-04-10T00:17:08.091Z,100.00
2023-04-10T00:18:09.600Z,100.00
2023-04-10T00:19:11.262Z,100.00
2023-04-10T00:20:12.844Z,100.00
2023-04-10T00:21:14.413Z,100.00
2023-04-10T00:22:15.915Z,100.00
2023-04-10T00:23:17.333Z,100.00
2023-04-10T00:24:18.738Z,100.00
2023-04-10T00:25:20.591Z,100.00
2023-04-10T00:26:23.768Z,100.00
2023-04-10T00:27:25.449Z,100.00
2023-04-10T00:28:27.261Z,100.00
2023-04-10T00:29:28.682Z,100.00
2023-04-10T00:30:30.115Z,100.00
2023-04-10T00:31:34.392Z,100.00
2023-04-10T00:32:36.035Z,100.00
2023-04-10T00:33:37.454Z,100.00
2023-04-10T00:34:38.917Z,100.00
2023-04-10T00:35:40.578Z,100.00
2023-04-10T00:36:42.302Z,100.00
2023-04-10T00:37:43.682Z,100.00
2023-04-10T00:38:45.212Z,100.00
2023-04-10T00:39:46.589Z,100.00
2023-04-10T00:40:48.354Z,100.00
2023-04-10T00:41:49.757Z,100.00
2023-04-10T00:42:51.291Z,100.00
2023-04-10T00:43:56.973Z,100.00
2023-04-10T00:44:59.159Z,100.00
2023-04-10T00:46:01.682Z,100.00
2023-04-10T00:47:05.444Z,100.00
2023-04-10T00:48:07.716Z,100.00
2023-04-10T00:49:09.549Z,100.00
2023-04-10T00:50:11.224Z,100.00
2023-04-10T00:51:12.896Z,100.00
2023-04-10T00:52:14.463Z,100.00
2023-04-10T00:53:16.611Z,100.00
2023-04-10T00:54:18.540Z,100.00
2023-04-10T00:55:20.261Z,100.00
2023-04-10T00:56:23.952Z,100.00
2023-04-10T00:57:27.078Z,100.00
2023-04-10T00:58:28.607Z,100.00
2023-04-10T00:59:30.485Z,100.00
2023-04-10T01:00:31.906Z,100.00
2023-04-10T01:01:33.434Z,100.00
2023-04-10T01:02:35.085Z,100.00
2023-04-10T01:03:38.406Z,100.00
2023-04-10T01:04:40.412Z,100.00
2023-04-10T01:06:02.283Z,100.00
2023-04-10T01:07:11.102Z,100.00
2023-04-10T01:08:24.800Z,100.00
2023-04-10T01:09:47.206Z,100.00
2023-04-10T01:10:56.631Z,100.00
2023-04-10T01:12:12.745Z,100.00
2023-04-10T01:13:25.366Z,100.00
2023-04-10T01:14:54.760Z,100.00
2023-04-10T01:16:09.224Z,100.00
2023-04-10T01:17:17.158Z,100.00
2023-04-10T01:18:53.077Z,100.00
2023-04-10T01:20:14.367Z,100.00
2023-04-10T01:21:17.351Z,100.00
2023-04-10T01:22:21.800Z,100.00
2023-04-10T01:23:32.445Z,100.00
2023-04-10T01:24:53.961Z,100.00
2023-04-10T01:26:04.075Z,100.00
2023-04-10T01:27:45.277Z,100.00
2023-04-10T01:29:04.109Z,100.00
2023-04-10T01:30:08.359Z,100.00
2023-04-10T01:31:15.482Z,100.00
2023-04-10T01:32:20.467Z,100.00
2023-04-10T01:33:26.550Z,100.00
2023-04-10T01:34:34.417Z,100.00
2023-04-10T01:35:37.224Z,100.00
2023-04-10T01:36:54.579Z,100.00
2023-04-10T01:37:57.289Z,100.00
2023-04-10T01:38:58.939Z,100.00
2023-04-10T01:40:03.276Z,100.00
2023-04-10T01:41:06.262Z,100.00
2023-04-10T01:42:10.696Z,100.00
2023-04-10T01:43:13.105Z,100.00
2023-04-10T01:44:16.635Z,100.00
2023-04-10T01:45:21.773Z,100.00
2023-04-10T01:46:25.095Z,100.00
2023-04-10T01:47:27.993Z,100.00
2023-04-10T01:48:30.081Z,100.00
2023-04-10T01:49:32.935Z,100.00
2023-04-10T01:50:35.475Z,100.00
2023-04-10T01:51:37.461Z,100.00
2023-04-10T01:52:41.064Z,100.00
2023-04-10T01:53:44.952Z,100.00
2023-04-10T01:54:48.485Z,100.00
2023-04-10T01:55:50.903Z,100.00
2023-04-10T01:56:52.794Z,100.00
2023-04-10T01:57:54.605Z,100.00
2023-04-10T01:58:56.562Z,100.00
2023-04-10T01:59:58.495Z,100.00
2023-04-10T02:00:59.895Z,100.00
2023-04-10T02:02:01.609Z,100.00
2023-04-10T02:03:03.501Z,100.00
2023-04-10T02:04:05.465Z,100.00
2023-04-10T02:05:07.239Z,100.00
2023-04-10T02:06:18.455Z,100.00
2023-04-10T02:07:49.080Z,100.00
2023-04-10T02:08:57.100Z,100.00
2023-04-10T02:10:24.771Z,100.00
2023-04-10T02:11:38.251Z,100.00
2023-04-10T02:12:45.915Z,100.00
2023-04-10T02:13:50.468Z,100.00
2023-04-10T02:14:56.116Z,100.00
2023-04-10T02:16:01.551Z,100.00
2023-04-10T02:17:06.555Z,100.00
2023-04-10T02:18:10.071Z,100.00
2023-04-10T02:19:13.110Z,100.00
2023-04-10T02:20:16.121Z,100.00
2023-04-10T02:21:17.828Z,100.00
2023-04-10T02:22:19.240Z,100.00
2023-04-10T02:23:21.077Z,100.00
2023-04-10T02:24:22.580Z,100.00
2023-04-10T02:25:23.976Z,100.00
2023-04-10T02:26:25.524Z,100.00
2023-04-10T02:27:33.882Z,100.00
2023-04-10T02:28:38.429Z,100.00
2023-04-10T02:29:39.849Z,100.00
2023-04-10T02:30:41.309Z,100.00
2023-04-10T02:31:43.736Z,100.00
2023-04-10T02:32:45.179Z,100.00
2023-04-10T02:33:47.370Z,100.00
2023-04-10T02:34:48.666Z,100.00
2023-04-10T02:35:50.100Z,100.00
2023-04-10T02:36:52.137Z,100.00
2023-04-10T02:37:53.506Z,100.00
2023-04-10T02:38:54.951Z,100.00
2023-04-10T02:39:56.454Z,100.00
2023-04-10T02:40:57.878Z,100.00
2023-04-10T02:41:59.376Z,100.00
2023-04-10T02:43:01.376Z,100.00
2023-04-10T02:44:02.824Z,100.00
2023-04-10T02:45:04.647Z,100.00
2023-04-10T02:46:06.533Z,100.00
2023-04-10T02:47:08.241Z,100.00
2023-04-10T02:48:10.963Z,100.00
2023-04-10T02:49:12.375Z,100.00
2023-04-10T02:50:13.986Z,100.00
2023-04-10T02:51:15.609Z,100.00
2023-04-10T02:52:17.345Z,100.00
2023-04-10T02:53:19.824Z,100.00
2023-04-10T02:54:21.580Z,100.00
2023-04-10T02:55:22.979Z,100.00
2023-04-10T02:56:25.734Z,100.00
2023-04-10T02:57:27.242Z,100.00
2023-04-10T02:58:30.448Z,100.00
2023-04-10T02:59:33.112Z,100.00
2023-04-10T03:00:34.516Z,100.00
2023-04-10T03:01:36.443Z,100.00
2023-04-10T03:02:38.047Z,100.00
2023-04-10T03:03:39.716Z,100.00
2023-04-10T03:04:41.243Z,100.00
2023-04-10T03:05:42.740Z,100.00
2023-04-10T03:06:44.281Z,100.00
2023-04-10T03:07:45.766Z,100.00
2023-04-10T03:08:47.288Z,100.00
2023-04-10T03:09:48.716Z,100.00
2023-04-10T03:10:50.398Z,100.00
2023-04-10T03:11:52.045Z,100.00
2023-04-10T03:12:53.437Z,100.00
2023-04-10T03:13:55.155Z,100.00
2023-04-10T03:14:56.784Z,100.00
2023-04-10T03:15:58.235Z,100.00
2023-04-10T03:16:59.676Z,100.00
2023-04-10T03:18:01.178Z,100.00
2023-04-10T03:19:02.704Z,100.00
2023-04-10T03:20:04.382Z,100.00
2023-04-10T03:21:06.397Z,100.00
2023-04-10T03:22:07.960Z,100.00
2023-04-10T03:23:09.398Z,100.00
2023-04-10T03:24:10.832Z,100.00
2023-04-10T03:25:12.269Z,100.00
2023-04-10T03:26:13.661Z,100.00
2023-04-10T03:27:15.892Z,100.00
2023-04-10T03:28:17.394Z,100.00
2023-04-10T03:29:19.105Z,100.00
2023-04-10T03:30:20.883Z,100.00
2023-04-10T03:31:22.341Z,100.00
2023-04-10T03:32:23.879Z,100.00
2023-04-10T03:33:25.366Z,100.00
2023-04-10T03:34:26.770Z,100.00
2023-04-10T03:35:28.258Z,100.00
2023-04-10T03:36:29.727Z,100.00
2023-04-10T03:37:31.692Z,100.00
2023-04-10T03:38:33.356Z,100.00
2023-04-10T03:39:34.833Z,100.00
2023-04-10T03:40:36.292Z,100.00
2023-04-10T03:41:37.725Z,100.00
2023-04-10T03:42:39.142Z,100.00
2023-04-10T03:43:40.697Z,100.00
2023-04-10T03:44:42.099Z,100.00
2023-04-10T03:45:43.492Z,100.00
2023-04-10T03:46:44.944Z,100.00
2023-04-10T03:47:46.448Z,100.00
2023-04-10T03:48:49.497Z,100.00
2023-04-10T03:49:50.932Z,100.00
2023-04-10T03:50:52.338Z,100.00
2023-04-10T03:51:53.747Z,100.00
2023-04-10T03:52:55.477Z,100.00
2023-04-10T03:53:57.076Z,100.00
2023-04-10T03:54:58.579Z,100.00
2023-04-10T03:56:00.252Z,100.00
2023-04-10T03:57:01.931Z,100.00
2023-04-10T03:58:03.334Z,100.00
2023-04-10T03:59:04.824Z,100.00
2023-04-10T04:00:07.223Z,100.00
2023-04-10T04:01:08.699Z,100.00
2023-04-10T04:02:10.848Z,100.00
2023-04-10T04:03:12.625Z,100.00
2023-04-10T04:04:14.532Z,100.00
2023-04-10T04:05:16.638Z,100.00
2023-04-10T04:06:18.218Z,100.00
2023-04-10T04:07:19.640Z,100.00
2023-04-10T04:08:21.032Z,100.00
2023-04-10T04:09:22.470Z,100.00
2023-04-10T04:10:24.325Z,100.00
2023-04-10T04:11:25.774Z,100.00
2023-04-10T04:12:27.199Z,100.00
2023-04-10T04:13:28.576Z,100.00
2023-04-10T04:14:30.179Z,100.00
2023-04-10T04:15:31.683Z,100.00
2023-04-10T04:16:33.385Z,100.00
2023-04-10T04:17:35.240Z,100.00
2023-04-10T04:18:36.737Z,100.00
2023-04-10T04:19:38.157Z,100.00
2023-04-10T04:20:39.635Z,100.00
2023-04-10T04:21:41.060Z,100.00
2023-04-10T04:22:42.526Z,100.00
2023-04-10T04:23:44.249Z,100.00
2023-04-10T04:24:45.686Z,100.00
2023-04-10T04:25:47.166Z,100.00
2023-04-10T04:26:49.852Z,100.00
2023-04-10T04:27:51.609Z,100.00
2023-04-10T04:28:53.086Z,100.00
2023-04-10T04:29:54.492Z,100.00
2023-04-10T04:30:55.951Z,100.00
2023-04-10T04:31:57.451Z,100.00
2023-04-10T04:32:59.071Z,100.00
2023-04-10T04:34:00.906Z,100.00
2023-04-10T04:35:02.510Z,100.00
2023-04-10T04:36:04.265Z,100.00
2023-04-10T04:37:05.919Z,100.00
2023-04-10T04:38:07.378Z,100.00
2023-04-10T04:39:08.812Z,100.00
2023-04-10T04:40:10.744Z,100.00
2023-04-10T04:41:12.289Z,100.00
2023-04-10T04:42:13.718Z,100.00
2023-04-10T04:43:15.238Z,100.00
2023-04-10T04:44:18.707Z,100.00
2023-04-10T04:45:21.766Z,100.00
2023-04-10T04:46:23.513Z,100.00
2023-04-10T04:47:25.216Z,100.00
2023-04-10T04:48:26.626Z,100.00
2023-04-10T04:49:28.100Z,100.00
2023-04-10T04:50:29.536Z,100.00
2023-04-10T04:51:31.048Z,100.00
2023-04-10T04:52:32.447Z,100.00
2023-04-10T04:53:33.876Z,100.00
2023-04-10T04:54:35.451Z,100.00
2023-04-10T04:55:36.992Z,100.00
2023-04-10T04:56:38.413Z,100.00
2023-04-10T04:57:39.833Z,100.00
2023-04-10T04:58:41.348Z,100.00
2023-04-10T04:59:42.775Z,100.00
2023-04-10T05:00:44.256Z,100.00
2023-04-10T05:01:45.837Z,100.00
2023-04-10T05:02:47.508Z,100.00
2023-04-10T05:03:49.195Z,100.00
2023-04-10T05:04:50.672Z,100.00
2023-04-10T05:05:52.071Z,100.00
2023-04-10T05:06:53.547Z,100.00
2023-04-10T05:07:55.015Z,100.00
2023-04-10T05:08:56.627Z,100.00
2023-04-10T05:09:58.118Z,100.00
2023-04-10T05:10:59.539Z,100.00
2023-04-10T05:12:00.945Z,100.00
2023-04-10T05:13:02.392Z,100.00
2023-04-10T05:14:03.882Z,100.00
2023-04-10T05:15:06.274Z,100.00
2023-04-10T05:16:08.160Z,100.00
2023-04-10T05:17:09.609Z,100.00
2023-04-10T05:18:11.356Z,100.00
2023-04-10T05:19:12.999Z,100.00
2023-04-10T05:20:14.600Z,100.00
2023-04-10T05:21:16.039Z,100.00
2023-04-10T05:22:18.637Z,100.00
2023-04-10T05:23:20.359Z,100.00
2023-04-10T05:24:21.997Z,100.00
2023-04-10T05:25:23.597Z,100.00
2023-04-10T05:26:24.977Z,100.00
2023-04-10T05:27:26.386Z,100.00
2023-04-10T05:28:27.875Z,100.00
2023-04-10T05:29:29.376Z,100.00
2023-04-10T05:30:30.803Z,100.00
2023-04-10T05:31:32.409Z,100.00
2023-04-10T05:32:33.935Z,100.00
2023-04-10T05:33:35.601Z,100.00
2023-04-10T05:34:37.063Z,100.00
2023-04-10T05:35:38.508Z,100.00
2023-04-10T05:36:39.937Z,100.00
2023-04-10T05:37:41.357Z,100.00
2023-04-10T05:38:42.763Z,100.00
2023-04-10T05:39:44.275Z,100.00
2023-04-10T05:40:45.807Z,100.00
2023-04-10T05:41:47.199Z,100.00
2023-04-10T05:42:48.608Z,100.00
2023-04-10T05:43:50.473Z,100.00
2023-04-10T05:44:52.829Z,100.00
2023-04-10T05:45:54.324Z,100.00
2023-04-10T05:46:55.767Z,100.00
2023-04-10T05:47:57.214Z,100.00
2023-04-10T05:48:58.739Z,100.00
2023-04-10T05:50:00.235Z,100.00
2023-04-10T05:51:01.641Z,100.00
2023-04-10T05:52:03.129Z,100.00
2023-04-10T05:53:04.600Z,100.00
2023-04-10T05:54:06.101Z,100.00
2023-04-10T05:55:08.292Z,100.00
2023-04-10T05:56:09.755Z,100.00
2023-04-10T05:57:11.222Z,99.72
2023-04-10T05:58:12.634Z,99.35
2023-04-10T05:59:14.063Z,99.48
2023-04-10T06:00:17.880Z,98.83
2023-04-10T06:01:19.426Z,98.71
2023-04-10T06:02:21.859Z,98.06
2023-04-10T06:03:24.033Z,97.85
2023-04-10T06:04:25.855Z,96.96
2023-04-10T06:05:27.756Z,95.77
2023-04-10T06:06:29.720Z,96.58
2023-04-10T06:07:33.151Z,95.75
2023-04-10T06:08:34.733Z,94.55
2023-04-10T06:09:36.449Z,96.08
2023-04-10T06:10:38.173Z,95.00
2023-04-10T06:11:39.640Z,94.01
2023-04-10T06:12:41.586Z,93.44
2023-04-10T06:13:42.994Z,91.69
2023-04-10T06:14:44.517Z,92.48
2023-04-10T06:15:46.006Z,93.05
2023-04-10T06:16:47.668Z,93.72
2023-04-10T06:17:49.141Z,92.15
2023-04-10T06:18:52.613Z,90.75
2023-04-10T06:19:54.318Z,92.89
2023-04-10T06:20:58.026Z,93.07
2023-04-10T06:21:59.427Z,93.20
2023-04-10T06:23:01.039Z,92.98
2023-04-10T06:24:02.513Z,91.63
2023-04-10T06:25:05.333Z,92.87
2023-04-10T06:26:06.932Z,91.52
2023-04-10T06:27:08.952Z,87.01
2023-04-10T06:28:10.258Z,86.67
2023-04-10T06:29:12.290Z,85.79
2023-04-10T06:30:13.574Z,86.97
2023-04-10T06:31:15.464Z,85.62
2023-04-10T06:32:16.877Z,85.87
2023-04-10T06:33:18.413Z,85.69
2023-04-10T06:34:19.898Z,86.56
2023-04-10T06:35:21.802Z,85.99
2023-04-10T06:36:23.330Z,83.45
2023-04-10T06:37:29.906Z,84.07
2023-04-10T06:38:31.516Z,86.33
2023-04-10T06:39:32.958Z,86.42
2023-04-10T06:40:34.481Z,87.45
2023-04-10T06:41:35.925Z,86.20
2023-04-10T06:42:37.892Z,86.05
2023-04-10T06:43:39.270Z,86.38
2023-04-10T06:44:40.686Z,82.47
2023-04-10T06:45:42.075Z,82.22
2023-04-10T06:46:43.553Z,81.88
2023-04-10T06:47:45.033Z,83.11
2023-04-10T06:48:46.441Z,81.40
2023-04-10T06:49:47.859Z,83.13
2023-04-10T06:50:49.282Z,82.83
2023-04-10T06:51:51.010Z,82.17
2023-04-10T06:52:55.784Z,83.99
2023-04-10T06:53:57.224Z,81.76
2023-04-10T06:54:58.609Z,80.02
2023-04-10T06:56:02.938Z,80.49
2023-04-10T06:57:05.373Z,81.74
2023-04-10T06:58:06.774Z,80.00
2023-04-10T06:59:08.214Z,79.13
2023-04-10T07:00:10.400Z,79.64
2023-04-10T07:01:11.836Z,79.77
2023-04-10T07:02:13.455Z,81.89
2023-04-10T07:03:15.046Z,82.63
2023-04-10T07:04:16.550Z,83.74
2023-04-10T07:05:18.066Z,80.46
2023-04-10T07:06:19.556Z,79.02
2023-04-10T07:07:21.329Z,80.79
2023-04-10T07:08:22.792Z,80.21
2023-04-10T07:09:27.893Z,81.28
2023-04-10T07:10:29.377Z,81.12
2023-04-10T07:11:30.851Z,82.80
2023-04-10T07:12:32.621Z,83.13
2023-04-10T07:13:35.593Z,83.46
2023-04-10T07:14:37.096Z,80.70
2023-04-10T07:15:38.644Z,79.92
2023-04-10T07:16:40.181Z,79.16
2023-04-10T07:17:41.694Z,80.55
2023-04-10T07:18:44.295Z,79.70
2023-04-10T07:19:47.115Z,79.50
2023-04-10T07:20:49.977Z,80.24
2023-04-10T07:21:51.432Z,78.68
2023-04-10T07:22:52.913Z,76.39
2023-04-10T07:23:54.802Z,77.03
2023-04-10T07:24:56.369Z,77.14
2023-04-10T07:25:58.245Z,78.71
2023-04-10T07:27:01.436Z,77.90
2023-04-10T07:28:02.896Z,77.92
2023-04-10T07:29:04.321Z,78.69
2023-04-10T07:30:06.677Z,79.83
2023-04-10T07:31:08.482Z,79.69
2023-04-10T07:32:10.043Z,79.93
2023-04-10T07:33:11.846Z,78.31
2023-04-10T07:34:13.497Z,77.65
2023-04-10T07:35:15.039Z,77.43
2023-04-10T07:36:16.545Z,78.71
2023-04-10T07:37:18.240Z,78.45
2023-04-10T07:38:19.752Z,78.37
2023-04-10T07:39:21.220Z,79.29
2023-04-10T07:40:22.635Z,79.96
2023-04-10T07:41:24.108Z,77.43
2023-04-10T07:42:25.745Z,78.30
2023-04-10T07:43:27.188Z,78.08
2023-04-10T07:44:28.660Z,78.52
2023-04-10T07:45:30.273Z,78.37
2023-04-10T07:46:31.774Z,75.01
2023-04-10T07:47:33.230Z,75.99
2023-04-10T07:48:34.733Z,76.79
2023-04-10T07:49:36.727Z,75.80
2023-04-10T07:50:38.034Z,75.31
2023-04-10T07:51:39.492Z,75.71
2023-04-10T07:52:40.916Z,76.25
2023-04-10T07:53:42.396Z,77.37
2023-04-10T07:54:43.872Z,75.29
2023-04-10T07:55:48.744Z,76.18
2023-04-10T07:56:52.446Z,76.53
2023-04-10T07:57:53.878Z,74.23
2023-04-10T07:58:55.510Z,74.38
2023-04-10T07:59:57.186Z,73.22
2023-04-10T08:00:58.965Z,71.08
2023-04-10T08:02:00.603Z,72.59
2023-04-10T08:03:02.503Z,73.34
2023-04-10T08:04:05.799Z,73.35
2023-04-10T08:05:08.054Z,74.12
2023-04-10T08:06:09.900Z,73.17
2023-04-10T08:07:11.324Z,71.02
2023-04-10T08:08:12.819Z,70.92
2023-04-10T08:09:14.233Z,73.20
2023-04-10T08:10:15.864Z,73.32
2023-04-10T08:11:31.867Z,73.67
2023-04-10T08:12:34.397Z,73.86
2023-04-10T08:13:36.011Z,72.61
2023-04-10T08:14:37.414Z,73.51
2023-04-10T08:15:38.804Z,72.15
2023-04-10T08:16:40.361Z,73.89
2023-04-10T08:17:41.932Z,72.57
2023-04-10T08:18:43.371Z,72.01
2023-04-10T08:19:44.789Z,71.71
2023-04-10T08:20:46.211Z,73.22
2023-04-10T08:21:47.630Z,71.73
2023-04-10T08:22:49.039Z,71.82
2023-04-10T08:23:55.192Z,72.61
2023-04-10T08:24:56.620Z,70.28
2023-04-10T08:25:58.014Z,70.71
2023-04-10T08:26:59.425Z,70.63
2023-04-10T08:28:01.000Z,71.50
2023-04-10T08:29:02.487Z,72.26
2023-04-10T08:30:04.726Z,72.17
2023-04-10T08:31:06.499Z,70.79
2023-04-10T08:32:08.145Z,71.13
2023-04-10T08:33:09.583Z,70.26
2023-04-10T08:34:11.326Z,71.54
2023-04-10T08:35:12.765Z,71.36
2023-04-10T08:36:20.199Z,70.72
2023-04-10T08:37:22.577Z,70.69
2023-04-10T08:38:25.052Z,69.24
2023-04-10T08:39:26.455Z,68.26
2023-04-10T08:40:27.999Z,68.78
2023-04-10T08:41:29.497Z,69.18
2023-04-10T08:42:32.192Z,68.67
2023-04-10T08:43:35.472Z,70.61
2023-04-10T08:44:37.923Z,68.82
2023-04-10T08:45:41.207Z,68.38
2023-04-10T08:46:45.520Z,68.21
2023-04-10T08:47:50.629Z,68.56
2023-04-10T08:48:59.521Z,68.50
2023-04-10T08:50:06.043Z,67.82
2023-04-10T08:51:18.674Z,69.43
2023-04-10T08:52:24.915Z,67.27
2023-04-10T08:53:30.986Z,67.23
2023-04-10T08:54:38.733Z,67.80
2023-04-10T08:55:41.154Z,68.67
2023-04-10T08:56:46.902Z,66.53
2023-04-10T08:57:58.041Z,66.42
2023-04-10T08:59:05.304Z,68.40
2023-04-10T09:01:29.035Z,64.60
2023-04-10T09:02:30.789Z,64.84
2023-04-10T09:03:32.792Z,64.38
2023-04-10T09:04:34.666Z,62.88
2023-04-10T09:05:37.005Z,63.41
2023-04-10T09:06:38.566Z,65.88
2023-04-10T09:07:40.101Z,64.70
2023-04-10T09:08:41.532Z,65.39
2023-04-10T09:09:43.350Z,63.97
2023-04-10T09:10:44.758Z,64.17
2023-04-10T09:11:52.386Z,64.86
2023-04-10T09:12:53.946Z,62.76
2023-04-10T09:13:55.512Z,64.34
2023-04-10T09:14:57.193Z,63.61
2023-04-10T09:15:59.508Z,64.62
2023-04-10T09:17:30.532Z,62.50
2023-04-10T09:18:51.550Z,61.75
2023-04-10T09:19:56.375Z,61.51
2023-04-10T09:21:07.074Z,59.47
2023-04-10T09:22:09.358Z,59.75
2023-04-10T09:23:23.015Z,62.49
2023-04-10T09:24:25.102Z,62.45
2023-04-10T09:25:36.685Z,60.45
2023-04-10T09:26:38.117Z,60.85
2023-04-10T09:27:40.180Z,60.97
2023-04-10T09:29:10.251Z,61.71
2023-04-10T09:30:32.127Z,60.08
2023-04-10T09:31:38.743Z,60.53
2023-04-10T09:32:43.135Z,60.35
2023-04-10T09:33:44.616Z,60.52
2023-04-10T09:34:54.688Z,60.79
2023-04-10T09:36:00.448Z,61.10
2023-04-10T09:37:02.079Z,58.61
2023-04-10T09:38:16.774Z,58.90
2023-04-10T09:39:18.455Z,56.68
2023-04-10T09:40:22.857Z,57.66
2023-04-10T09:41:24.292Z,57.98
2023-04-10T09:42:37.275Z,60.64
2023-04-10T09:43:39.046Z,59.43
2023-04-10T09:44:41.470Z,58.39
2023-04-10T09:45:50.989Z,59.95
2023-04-10T09:46:52.575Z,57.67
2023-04-10T09:48:08.336Z,57.59
2023-04-10T09:49:09.977Z,58.41
2023-04-10T09:50:11.443Z,59.51
2023-04-10T09:51:31.610Z,59.24
2023-04-10T09:52:38.164Z,59.28
2023-04-10T09:53:50.426Z,59.03
2023-04-10T09:54:53.912Z,58.78
2023-04-10T09:55:56.201Z,59.42
2023-04-10T09:56:58.144Z,57.65
2023-04-10T09:58:00.603Z,58.58
2023-04-10T09:59:04.701Z,58.11
2023-04-10T10:00:09.763Z,56.79
2023-04-10T10:01:12.830Z,55.91
2023-04-10T10:02:16.435Z,56.32
2023-04-10T10:03:21.148Z,57.13
2023-04-10T10:04:23.495Z,57.97
2023-04-10T10:05:30.399Z,54.00
2023-04-10T10:06:32.901Z,54.85
2023-04-10T10:07:34.809Z,54.21
2023-04-10T10:08:36.432Z,52.42
2023-04-10T10:09:38.537Z,53.29
2023-04-10T10:10:51.044Z,53.59
2023-04-10T10:11:53.105Z,55.43
2023-04-10T10:13:01.797Z,54.04
2023-04-10T10:14:08.482Z,51.75
2023-04-10T10:15:22.368Z,51.23
2023-04-10T10:16:39.036Z,53.27
2023-04-10T10:17:55.358Z,50.85
2023-04-10T10:19:22.066Z,51.52
2023-04-10T10:20:26.149Z,52.84
2023-04-10T10:21:29.654Z,51.92
2023-04-10T10:22:32.413Z,54.26
2023-04-10T10:23:34.229Z,53.23
2023-04-10T10:24:38.355Z,54.14
2023-04-10T10:25:40.372Z,52.09
2023-04-10T10:26:43.144Z,55.30
2023-04-10T10:27:46.276Z,54.35
2023-04-10T10:28:50.970Z,51.45
2023-04-10T10:29:54.719Z,53.17
2023-04-10T10:30:56.317Z,53.37
2023-04-10T10:32:02.841Z,51.90
2023-04-10T10:33:07.217Z,53.16
2023-04-10T10:34:09.657Z,51.72
2023-04-10T10:35:11.295Z,52.56
2023-04-10T10:36:14.833Z,51.38
2023-04-10T10:37:17.204Z,51.82
2023-04-10T10:38:19.106Z,51.78
2023-04-10T10:39:23.227Z,50.00
2023-04-10T10:40:44.152Z,50.07
2023-04-10T10:41:58.322Z,50.08
2023-04-10T10:43:12.179Z,48.97
2023-04-10T10:44:22.054Z,51.64
2023-04-10T10:45:50.938Z,51.28
2023-04-10T10:46:59.363Z,51.19
2023-04-10T10:48:00.838Z,52.45
2023-04-10T10:49:02.382Z,51.17
2023-04-10T10:50:04.101Z,50.21
2023-04-10T10:51:05.908Z,48.99
2023-04-10T10:52:07.244Z,51.22
2023-04-10T10:53:08.692Z,50.23
2023-04-10T10:54:31.680Z,48.13
2023-04-10T10:55:37.112Z,49.82
2023-04-10T10:56:38.568Z,45.85
2023-04-10T10:57:47.713Z,49.91
2023-04-10T10:58:56.141Z,47.75
2023-04-10T10:59:58.011Z,47.25
2023-04-10T11:00:59.413Z,48.72
2023-04-10T11:02:14.009Z,48.25
2023-04-10T11:03:15.607Z,48.75
2023-04-10T11:04:42.749Z,49.45
2023-04-10T11:06:06.859Z,48.14
2023-04-10T11:07:08.378Z,49.18
2023-04-10T11:08:09.786Z,49.13
2023-04-10T11:09:47.591Z,51.58
2023-04-10T11:11:06.314Z,49.86
2023-04-10T11:12:07.796Z,50.69
2023-04-10T11:13:17.215Z,48.48
2023-04-10T11:14:19.289Z,48.88
2023-04-10T11:15:24.249Z,47.43
2023-04-10T11:16:36.294Z,46.25
2023-04-10T11:17:54.377Z,50.43
2023-04-10T11:19:13.088Z,49.02
2023-04-10T11:20:17.075Z,49.43
2023-04-10T11:21:20.875Z,51.53
2023-04-10T11:22:22.324Z,49.29
2023-04-10T11:23:24.066Z,48.37
2023-04-10T11:24:26.667Z,48.65
2023-04-10T11:26:03.754Z,49.64
2023-04-10T11:27:05.181Z,48.34
2023-04-10T11:28:06.763Z,48.19
2023-04-10T11:29:20.189Z,49.18
2023-04-10T11:30:35.719Z,46.25
2023-04-10T11:31:37.283Z,48.05
2023-04-10T11:32:42.192Z,49.25
2023-04-10T11:33:43.984Z,46.65
2023-04-10T11:34:45.782Z,47.78
2023-04-10T11:35:47.712Z,46.85
2023-04-10T11:36:49.256Z,47.26
2023-04-10T11:37:51.614Z,46.80
2023-04-10T11:38:56.220Z,46.99
2023-04-10T11:40:05.465Z,45.77
2023-04-10T11:41:07.122Z,47.86
2023-04-10T11:42:11.565Z,50.04
2023-04-10T11:43:15.855Z,48.12
2023-04-10T11:44:39.049Z,46.90
2023-04-10T11:45:40.573Z,47.77
2023-04-10T11:46:48.270Z,47.31
2023-04-10T11:47:53.728Z,48.90
2023-04-10T11:48:58.405Z,48.01
2023-04-10T11:49:59.886Z,47.40
2023-04-10T11:51:09.556Z,47.32
2023-04-10T11:52:11.016Z,48.95
2023-04-10T11:53:20.017Z,49.72
2023-04-10T11:54:23.628Z,49.25
2023-04-10T11:55:39.111Z,49.03
2023-04-10T11:56:43.081Z,49.20
2023-04-10T11:57:45.860Z,48.79
2023-04-10T11:58:53.987Z,49.15
2023-04-10T11:59:55.677Z,49.19
2023-04-10T12:01:04.697Z,46.27
2023-04-10T12:02:11.690Z,46.72
2023-04-10T12:03:13.439Z,47.69
2023-04-10T12:04:17.468Z,47.05
2023-04-10T12:05:19.407Z,47.49
2023-04-10T12:06:21.109Z,47.17
2023-04-10T12:07:24.132Z,46.91
2023-04-10T12:08:37.261Z,49.88
2023-04-10T12:09:38.738Z,49.52
2023-04-10T12:10:47.140Z,46.82
2023-04-10T12:12:03.341Z,46.29
2023-04-10T12:13:06.223Z,46.27
2023-04-10T12:14:08.151Z,46.08
2023-04-10T12:15:26.531Z,45.78
2023-04-10T12:16:28.183Z,46.88
2023-04-10T12:17:30.011Z,47.16
2023-04-10T12:18:31.846Z,47.77
2023-04-10T12:19:34.456Z,47.79
2023-04-10T12:20:35.942Z,46.53
2023-04-10T12:21:38.651Z,46.21
2023-04-10T12:22:40.446Z,45.17
2023-04-10T12:23:42.420Z,45.73
2023-04-10T12:24:46.622Z,45.67
2023-04-10T12:25:48.154Z,44.97
2023-04-10T12:26:49.812Z,47.32
2023-04-10T12:27:51.672Z,46.00
2023-04-10T12:28:59.633Z,46.66
2023-04-10T12:30:08.171Z,44.58
2023-04-10T12:31:10.039Z,42.25
2023-04-10T12:32:11.652Z,41.88
2023-04-10T12:33:13.405Z,39.37
2023-04-10T12:34:18.988Z,40.51
2023-04-10T12:35:20.577Z,41.78
2023-04-10T12:36:24.019Z,40.89
2023-04-10T12:37:46.234Z,40.69
2023-04-10T12:38:47.785Z,42.33
2023-04-10T12:39:49.763Z,42.04
2023-04-10T12:41:01.226Z,42.80
2023-04-10T12:42:16.646Z,42.25
2023-04-10T12:43:39.436Z,43.09
2023-04-10T12:44:57.477Z,39.90
2023-04-10T12:45:58.960Z,39.19
2023-04-10T12:47:01.774Z,40.41
2023-04-10T12:48:03.341Z,41.72
2023-04-10T12:49:12.971Z,41.17
2023-04-10T12:50:16.277Z,41.91
2023-04-10T12:51:17.710Z,41.89
2023-04-10T12:52:23.130Z,41.86
2023-04-10T12:53:25.546Z,40.56
2023-04-10T12:54:37.104Z,39.54
2023-04-10T12:55:38.664Z,42.64
2023-04-10T12:56:44.560Z,43.24
2023-04-10T12:57:47.784Z,41.12
2023-04-10T12:58:49.236Z,42.18
2023-04-10T12:59:51.744Z,42.34
2023-04-10T13:00:53.646Z,43.78
2023-04-10T13:01:55.467Z,40.54
2023-04-10T13:02:57.165Z,41.94
2023-04-10T13:03:58.839Z,41.41
2023-04-10T13:05:00.501Z,44.46
2023-04-10T13:06:03.184Z,43.03
2023-04-10T13:07:04.670Z,44.81
2023-04-10T13:08:06.175Z,43.04
2023-04-10T13:09:07.560Z,41.63
2023-04-10T13:10:09.378Z,43.39
2023-04-10T13:11:10.967Z,42.83
2023-04-10T13:12:13.302Z,43.34
2023-04-10T13:13:15.454Z,42.42
2023-04-10T13:14:16.945Z,43.20
2023-04-10T13:15:18.438Z,42.84
2023-04-10T13:16:19.916Z,42.82
2023-04-10T13:17:22.174Z,42.25
2023-04-10T13:18:23.593Z,43.85
2023-04-10T13:19:25.130Z,41.05
2023-04-10T13:20:26.636Z,42.23
2023-04-10T13:21:29.425Z,42.80
2023-04-10T13:22:30.878Z,43.23
2023-04-10T13:23:32.277Z,42.28
2023-04-10T13:24:33.699Z,43.10
2023-04-10T13:25:39.704Z,43.20
2023-04-10T13:26:41.289Z,41.69
2023-04-10T13:27:42.753Z,43.29
2023-04-10T13:28:44.255Z,45.61
2023-04-10T13:29:46.061Z,44.57
2023-04-10T13:30:47.400Z,41.93
2023-04-10T13:31:50.194Z,43.25